createdAt,value
2023-02-11T00:00:41.140Z,3.53
2023-02-11T00:05:36.032Z,2.72
2023-02-11T00:08:02.601Z,3.08
2023-02-11T00:10:31.385Z,3.22
2023-02-11T00:12:58.180Z,3.05
2023-02-11T00:15:24.831Z,3.05
2023-02-11T00:17:51.853Z,2.95
2023-02-11T00:20:18.412Z,2.75
2023-02-11T00:22:45.692Z,3.13
2023-02-11T00:25:12.273Z,3.22
2023-02-11T00:27:38.827Z,2.80
2023-02-11T00:30:06.031Z,3.13
2023-02-11T00:32:32.774Z,3.05
2023-02-11T00:34:59.395Z,3.08
2023-02-11T00:37:25.879Z,2.75
2023-02-11T00:39:52.452Z,3.03
2023-02-11T00:42:21.366Z,3.28
2023-02-11T00:44:49.263Z,3.55
2023-02-11T00:47:15.741Z,3.95
2023-02-11T00:49:42.272Z,2.60
2023-02-11T00:52:09.064Z,3.05
2023-02-11T00:54:37.443Z,2.47
2023-02-11T00:59:33.265Z,3.78
2023-02-11T01:02:02.195Z,3.25
2023-02-11T01:04:29.016Z,3.40
2023-02-11T01:06:55.564Z,3.08
2023-02-11T01:09:23.467Z,3.08
2023-02-11T01:11:50.294Z,2.45
2023-02-11T01:14:17.333Z,2.70
2023-02-11T01:16:46.616Z,3.10
2023-02-11T01:19:13.815Z,2.88
2023-02-11T01:21:42.834Z,2.92
2023-02-11T01:24:09.433Z,3.50
2023-02-11T01:26:39.255Z,2.80
2023-02-11T01:29:07.424Z,3.50
2023-02-11T01:31:34.052Z,3.13
2023-02-11T01:34:03.261Z,2.72
2023-02-11T01:36:32.487Z,3.40
2023-02-11T01:38:59.306Z,3.38
2023-02-11T01:41:25.956Z,3.17
2023-02-11T01:43:52.813Z,3.72
2023-02-11T01:46:37.693Z,4.00
2023-02-11T01:49:10.056Z,3.08
2023-02-11T01:51:42.515Z,3.50
2023-02-11T01:54:30.100Z,2.65
2023-02-11T01:57:18.848Z,3.33
2023-02-11T02:00:21.903Z,4.38
2023-02-11T02:02:54.317Z,4.00
2023-02-11T02:05:43.267Z,3.92
2023-02-11T02:08:32.354Z,3.03
2023-02-11T02:11:01.279Z,4.18
2023-02-11T02:13:32.912Z,3.50
2023-02-11T02:16:03.909Z,3.92
2023-02-11T02:18:42.726Z,3.45
2023-02-11T02:21:39.875Z,3.25
2023-02-11T02:24:31.079Z,3.90
2023-02-11T02:27:13.205Z,4.07
2023-02-11T02:29:52.050Z,3.55
2023-02-11T02:32:36.943Z,3.30
2023-02-11T02:35:10.795Z,3.80
2023-02-11T02:38:06.829Z,3.85
2023-02-11T02:40:52.953Z,3.53
2023-02-11T02:43:21.842Z,3.33
2023-02-11T02:45:49.139Z,3.20
2023-02-11T02:48:42.746Z,3.40
2023-02-11T02:51:25.376Z,3.33
2023-02-11T02:54:08.973Z,3.88
2023-02-11T02:56:51.896Z,3.03
2023-02-11T02:59:33.774Z,3.15
2023-02-11T03:02:50.358Z,3.35
2023-02-11T03:05:22.844Z,2.92
2023-02-11T03:07:58.255Z,3.72
2023-02-11T03:10:47.111Z,3.13
2023-02-11T03:13:19.645Z,3.47
2023-02-11T03:15:52.511Z,3.28
2023-02-11T03:18:24.641Z,2.72
2023-02-11T03:20:54.680Z,3.42
2023-02-11T03:23:37.523Z,3.20
2023-02-11T03:26:48.325Z,3.40
2023-02-11T03:29:31.040Z,3.40
2023-02-11T03:32:17.709Z,3.10
2023-02-11T03:34:47.695Z,3.67
2023-02-11T03:37:27.753Z,4.50
2023-02-11T03:40:25.035Z,3.33
2023-02-11T03:42:57.594Z,3.05
2023-02-11T03:45:26.829Z,4.20
2023-02-11T03:48:04.306Z,4.57
2023-02-11T03:50:37.489Z,3.90
2023-02-11T03:53:06.050Z,3.67
2023-02-11T03:55:36.968Z,4.88
2023-02-11T03:58:06.832Z,5.05
2023-02-11T04:00:37.060Z,5.20
2023-02-11T04:03:04.869Z,4.72
2023-02-11T04:05:34.055Z,4.30
2023-02-11T04:08:01.123Z,5.35
2023-02-11T04:10:30.284Z,4.30
2023-02-11T04:12:57.443Z,3.42
2023-02-11T04:15:24.912Z,5.40
2023-02-11T04:17:53.811Z,6.20
2023-02-11T04:20:20.417Z,4.53
2023-02-11T04:22:52.029Z,5.60
2023-02-11T04:25:18.908Z,6.00
2023-02-11T04:27:45.401Z,5.88
2023-02-11T04:30:15.676Z,5.95
2023-02-11T04:32:42.569Z,5.80
2023-02-11T04:35:12.185Z,5.53
2023-02-11T04:37:38.982Z,5.97
2023-02-11T04:40:06.126Z,5.93
2023-02-11T04:42:34.941Z,5.75
2023-02-11T04:45:02.197Z,6.70
2023-02-11T04:47:31.330Z,5.32
2023-02-11T04:50:00.591Z,6.85
2023-02-11T04:52:27.493Z,7.40
2023-02-11T04:54:54.361Z,5.97
2023-02-11T04:57:23.510Z,5.97
2023-02-11T04:59:52.657Z,6.07
2023-02-11T05:02:19.525Z,5.93
2023-02-11T05:04:46.477Z,6.85
2023-02-11T05:07:13.043Z,6.25
2023-02-11T05:09:41.968Z,6.97
2023-02-11T05:12:11.105Z,7.40
2023-02-11T05:14:40.490Z,7.57
2023-02-11T05:17:07.214Z,7.35
2023-02-11T05:19:34.114Z,5.72
2023-02-11T05:22:03.482Z,7.47
2023-02-11T05:24:34.767Z,7.40
2023-02-11T05:27:02.037Z,7.20
2023-02-11T05:29:28.618Z,8.57
2023-02-11T05:31:55.167Z,8.02
2023-02-11T05:34:22.022Z,7.88
2023-02-11T05:36:48.846Z,8.32
2023-02-11T05:39:15.486Z,8.07
2023-02-11T05:41:46.292Z,7.57
2023-02-11T05:44:13.191Z,8.05
2023-02-11T05:46:42.816Z,8.02
2023-02-11T05:49:09.293Z,8.77
2023-02-11T05:51:35.839Z,8.07
2023-02-11T05:54:04.654Z,7.68
2023-02-11T05:56:31.473Z,7.53
2023-02-11T05:59:00.513Z,8.27
2023-02-11T06:01:27.339Z,7.72
2023-02-11T06:03:54.314Z,8.35
2023-02-11T06:06:21.351Z,9.20
2023-02-11T06:08:49.752Z,7.82
2023-02-11T06:13:47.537Z,8.48
2023-02-11T06:16:14.730Z,8.07
2023-02-11T06:18:41.624Z,8.65
2023-02-11T06:21:10.336Z,7.85
2023-02-11T06:23:37.498Z,8.85
2023-02-11T06:26:06.332Z,9.95
2023-02-11T06:28:36.389Z,9.80
2023-02-11T06:31:07.248Z,9.45
2023-02-11T06:33:37.688Z,9.57
2023-02-11T06:36:13.739Z,9.70
2023-02-11T06:38:41.819Z,9.18
2023-02-11T06:41:16.919Z,9.90
2023-02-11T06:43:44.531Z,10.55
2023-02-11T06:46:11.575Z,10.07
2023-02-11T06:48:39.286Z,10.35
2023-02-11T06:51:13.699Z,10.48
2023-02-11T06:53:43.818Z,10.80
2023-02-11T06:56:13.952Z,9.43
2023-02-11T06:58:40.917Z,9.02
2023-02-11T07:01:09.475Z,10.10
2023-02-11T07:03:40.670Z,10.02
2023-02-11T07:06:09.084Z,10.32
2023-02-11T07:11:19.540Z,10.43
2023-02-11T07:13:51.292Z,9.65
2023-02-11T07:16:19.802Z,10.98
2023-02-11T07:18:47.886Z,10.10
2023-02-11T07:21:19.883Z,10.88
2023-02-11T07:23:49.472Z,10.73
2023-02-11T07:26:20.048Z,10.77
2023-02-11T07:28:49.469Z,10.20
2023-02-11T07:31:26.024Z,11.25
2023-02-11T07:33:54.752Z,11.23
2023-02-11T07:36:22.265Z,10.50
2023-02-11T07:38:49.242Z,12.33
2023-02-11T07:41:18.966Z,11.90
2023-02-11T07:43:46.388Z,12.05
2023-02-11T07:46:22.212Z,11.90
2023-02-11T07:48:48.858Z,11.63
2023-02-11T07:51:16.806Z,11.45
2023-02-11T07:53:44.472Z,11.75
2023-02-11T07:56:14.909Z,10.57
2023-02-11T07:58:44.979Z,11.73
2023-02-11T08:01:25.472Z,10.45
2023-02-11T08:03:52.775Z,11.88
2023-02-11T08:06:21.217Z,10.52
2023-02-11T08:08:48.155Z,10.35
2023-02-11T08:11:24.379Z,11.48
2023-02-11T08:13:53.970Z,10.50
2023-02-11T08:16:29.858Z,10.88
2023-02-11T08:18:59.096Z,12.25
2023-02-11T08:21:26.555Z,11.35
2023-02-11T08:23:55.201Z,11.90
2023-02-11T08:26:28.794Z,12.20
2023-02-11T08:28:57.099Z,10.65
2023-02-11T08:31:27.048Z,11.85
2023-02-11T08:33:55.011Z,11.27
2023-02-11T08:36:26.806Z,10.57
2023-02-11T08:39:16.100Z,11.73
2023-02-11T08:41:45.160Z,11.95
2023-02-11T08:44:11.946Z,13.40
2023-02-11T08:46:38.737Z,12.10
2023-02-11T08:49:05.657Z,11.48
2023-02-11T08:51:33.319Z,11.63
2023-02-11T08:54:00.724Z,11.65
2023-02-11T08:56:28.226Z,11.40
2023-02-11T08:58:55.247Z,13.13
2023-02-11T09:01:29.021Z,12.95
2023-02-11T09:03:56.749Z,11.65
2023-02-11T09:06:27.145Z,12.70
2023-02-11T09:08:56.786Z,12.70
2023-02-11T09:11:34.261Z,11.45
2023-02-11T09:14:01.848Z,11.98
2023-02-11T09:16:33.030Z,10.13
2023-02-11T09:19:02.061Z,11.80
2023-02-11T09:21:29.467Z,12.18
2023-02-11T09:23:59.076Z,11.53
2023-02-11T09:26:32.796Z,11.43
2023-02-11T09:29:00.829Z,12.27
2023-02-11T09:31:29.761Z,11.40
2023-02-11T09:34:02.582Z,8.38
2023-02-11T09:36:34.823Z,10.02
2023-02-11T09:39:02.536Z,11.80
2023-02-11T09:41:35.631Z,11.55
2023-02-11T09:44:06.636Z,11.05
2023-02-11T09:46:36.986Z,10.88
2023-02-11T09:49:05.008Z,11.63
2023-02-11T09:51:40.654Z,11.57
2023-02-11T09:54:31.970Z,10.70
2023-02-11T09:56:58.806Z,10.75
2023-02-11T09:59:27.899Z,10.73
2023-02-11T10:02:00.269Z,10.98
2023-02-11T10:04:38.268Z,10.88
2023-02-11T10:07:17.305Z,11.32
2023-02-11T10:10:25.681Z,10.32
2023-02-11T10:12:55.151Z,10.15
2023-02-11T10:15:33.481Z,8.77
2023-02-11T10:18:00.519Z,10.40
2023-02-11T10:21:08.829Z,10.50
2023-02-11T10:23:40.270Z,10.63
2023-02-11T10:26:17.747Z,9.75
2023-02-11T10:28:47.970Z,9.02
2023-02-11T10:31:18.907Z,8.85
2023-02-11T10:34:12.391Z,7.47
2023-02-11T10:36:43.946Z,8.80
2023-02-11T10:39:19.267Z,8.18
2023-02-11T10:41:50.729Z,7.57
2023-02-11T10:44:24.864Z,7.68
2023-02-11T10:46:52.524Z,8.35
2023-02-11T10:49:36.661Z,8.48
2023-02-11T10:52:14.197Z,7.70
2023-02-11T10:54:41.170Z,7.38
2023-02-11T10:57:22.344Z,7.50
2023-02-11T10:59:49.492Z,7.85
2023-02-11T11:02:35.952Z,7.50
2023-02-11T11:05:31.617Z,6.75
2023-02-11T11:08:10.077Z,6.93
2023-02-11T11:10:44.101Z,6.78
2023-02-11T11:13:32.241Z,7.20
2023-02-11T11:16:13.922Z,6.70
2023-02-11T11:18:43.871Z,6.32
2023-02-11T11:21:35.761Z,6.68
2023-02-11T11:24:03.912Z,6.72
2023-02-11T11:26:48.665Z,6.15
2023-02-11T11:29:23.949Z,6.80
2023-02-11T11:31:57.907Z,7.55
2023-02-11T11:34:29.246Z,5.68
2023-02-11T11:36:58.404Z,6.80
2023-02-11T11:39:31.429Z,6.88
2023-02-11T11:41:59.593Z,6.72
2023-02-11T11:47:12.409Z,6.10
2023-02-11T11:50:09.095Z,6.47
2023-02-11T11:52:53.893Z,6.22
2023-02-11T11:55:42.976Z,5.60
2023-02-11T11:58:26.221Z,6.30
2023-02-11T12:01:10.788Z,6.32
2023-02-11T12:04:14.396Z,4.65
2023-02-11T12:07:00.723Z,5.35
2023-02-11T12:09:38.452Z,5.55
2023-02-11T12:12:14.271Z,5.63
2023-02-11T12:14:49.810Z,5.15
2023-02-11T12:17:57.411Z,5.00
2023-02-11T12:20:36.043Z,4.80
2023-02-11T12:23:11.653Z,4.40
2023-02-11T12:25:45.333Z,5.10
2023-02-11T12:28:34.003Z,4.20
2023-02-11T12:31:35.445Z,4.63
2023-02-11T12:34:12.440Z,4.13
2023-02-11T12:36:47.440Z,3.92
2023-02-11T12:39:37.445Z,3.88
2023-02-11T12:42:47.151Z,4.10
2023-02-11T12:45:26.400Z,3.45
2023-02-11T12:48:37.078Z,4.38
2023-02-11T12:51:28.258Z,3.50
2023-02-11T12:54:09.982Z,3.83
2023-02-11T12:57:02.465Z,4.05
2023-02-11T12:59:40.553Z,4.05
2023-02-11T13:02:22.966Z,4.25
2023-02-11T13:04:54.507Z,4.28
2023-02-11T13:07:32.723Z,3.65
2023-02-11T13:10:15.642Z,4.20
2023-02-11T13:13:07.007Z,3.60
2023-02-11T13:15:33.628Z,3.88
2023-02-11T13:18:27.402Z,3.85
2023-02-11T13:21:15.578Z,4.18
2023-02-11T13:24:17.833Z,4.07
2023-02-11T13:26:47.448Z,3.60
2023-02-11T13:29:25.889Z,4.07
2023-02-11T13:32:18.188Z,3.45
2023-02-11T13:34:44.649Z,4.00
2023-02-11T13:37:28.120Z,3.78
2023-02-11T13:40:01.037Z,4.05
2023-02-11T13:42:30.521Z,3.95
2023-02-11T13:44:58.265Z,3.72
2023-02-11T13:47:38.031Z,3.70
2023-02-11T13:50:07.737Z,4.00
2023-02-11T13:52:40.004Z,4.28
2023-02-11T13:55:21.093Z,3.95
2023-02-11T13:58:11.135Z,3.38
2023-02-11T14:00:37.556Z,3.67
2023-02-11T14:03:32.321Z,4.22
2023-02-11T14:06:34.397Z,3.80
2023-02-11T14:09:09.972Z,3.67
2023-02-11T14:11:51.822Z,3.92
2023-02-11T14:14:25.691Z,3.60
2023-02-11T14:16:58.154Z,3.88
2023-02-11T14:19:45.677Z,3.70
2023-02-11T14:22:21.743Z,4.07
2023-02-11T14:24:50.997Z,3.75
2023-02-11T14:27:32.624Z,4.47
2023-02-11T14:30:20.909Z,4.03
2023-02-11T14:33:08.595Z,4.32
2023-02-11T14:35:40.482Z,3.88
2023-02-11T14:38:18.927Z,4.03
2023-02-11T14:41:18.671Z,4.07
2023-02-11T14:43:49.694Z,4.22
2023-02-11T14:46:19.135Z,3.85
2023-02-11T14:48:49.026Z,3.97
2023-02-11T14:51:28.136Z,3.63
2023-02-11T14:54:00.962Z,3.67
2023-02-11T14:56:34.732Z,4.38
2023-02-11T14:59:02.813Z,3.72
2023-02-11T15:01:34.334Z,3.90
2023-02-11T15:04:03.640Z,4.20
2023-02-11T15:06:37.723Z,3.80
2023-02-11T15:09:16.423Z,3.95
2023-02-11T15:11:46.091Z,3.53
2023-02-11T15:14:35.968Z,3.72
2023-02-11T15:17:05.988Z,3.70
2023-02-11T15:19:41.024Z,4.10
2023-02-11T15:22:18.815Z,4.07
2023-02-11T15:24:45.967Z,6.63
2023-02-11T15:27:18.864Z,3.93
2023-02-11T15:29:51.166Z,4.45
2023-02-11T15:32:25.825Z,6.15
2023-02-11T15:34:54.382Z,5.60
2023-02-11T15:37:29.097Z,5.82
2023-02-11T15:40:11.565Z,6.60
2023-02-11T15:42:52.066Z,4.22
2023-02-11T15:45:29.024Z,4.32
2023-02-11T15:48:18.003Z,4.75
2023-02-11T15:50:55.750Z,5.40
2023-02-11T15:56:08.288Z,5.30
2023-02-11T15:58:43.766Z,4.93
2023-02-11T16:01:11.387Z,4.80
2023-02-11T16:03:38.644Z,4.20
2023-02-11T16:06:29.493Z,5.37
2023-02-11T16:09:01.695Z,6.68
2023-02-11T16:11:34.502Z,8.10
2023-02-11T16:14:04.567Z,9.88
2023-02-11T16:16:34.755Z,7.28
2023-02-11T16:19:06.220Z,7.38
2023-02-11T16:21:45.273Z,8.32
2023-02-11T16:24:27.986Z,8.23
2023-02-11T16:26:57.997Z,6.53
2023-02-11T16:29:27.456Z,7.32
2023-02-11T16:32:05.237Z,4.75
2023-02-11T16:34:31.872Z,5.50
2023-02-11T16:37:04.354Z,5.13
2023-02-11T16:39:31.100Z,5.10
2023-02-11T16:41:58.492Z,5.25
2023-02-11T16:44:26.496Z,9.80
2023-02-11T16:46:54.899Z,7.13
2023-02-11T16:49:32.617Z,6.20
2023-02-11T16:52:03.865Z,10.55
2023-02-11T16:54:32.018Z,10.65
2023-02-11T16:57:09.120Z,10.57
2023-02-11T16:59:35.625Z,5.57
2023-02-11T17:02:04.988Z,15.77
2023-02-11T17:04:33.718Z,7.50
2023-02-11T17:07:00.365Z,5.72
2023-02-11T17:09:31.437Z,6.05
2023-02-11T17:11:58.076Z,5.55
2023-02-11T17:14:27.421Z,5.45
2023-02-11T17:16:57.906Z,4.38
2023-02-11T17:19:26.814Z,5.95
2023-02-11T17:21:53.357Z,6.05
2023-02-11T17:24:21.942Z,6.30
2023-02-11T17:26:49.736Z,5.68
2023-02-11T17:29:23.091Z,7.05
2023-02-11T17:31:52.730Z,6.53
2023-02-11T17:34:23.607Z,6.72
2023-02-11T17:36:52.155Z,7.50
2023-02-11T17:39:21.179Z,5.40
2023-02-11T17:41:49.322Z,5.95
2023-02-11T17:44:16.521Z,5.97
2023-02-11T17:46:43.754Z,5.67
2023-02-11T17:49:11.971Z,5.10
2023-02-11T17:54:17.635Z,6.17
2023-02-11T17:56:45.134Z,6.50
2023-02-11T17:59:14.114Z,5.47
2023-02-11T18:01:42.236Z,6.20
2023-02-11T18:04:13.200Z,5.82
2023-02-11T18:06:39.832Z,5.68
2023-02-11T18:09:10.475Z,5.28
2023-02-11T18:11:39.994Z,5.22
2023-02-11T18:14:08.553Z,5.68
2023-02-11T18:16:39.462Z,5.47
2023-02-11T18:19:08.291Z,5.55
2023-02-11T18:21:35.058Z,6.13
2023-02-11T18:24:06.960Z,6.82
2023-02-11T18:26:39.132Z,6.05
2023-02-11T18:29:07.013Z,6.35
2023-02-11T18:31:35.720Z,5.53
2023-02-11T18:34:07.777Z,5.18
2023-02-11T18:36:35.412Z,6.68
2023-02-11T18:39:06.268Z,6.15
2023-02-11T18:41:33.508Z,8.55
2023-02-11T18:44:03.035Z,9.38
2023-02-11T18:46:32.816Z,7.18
2023-02-11T18:48:59.782Z,6.15
2023-02-11T18:51:27.034Z,7.25
2023-02-11T18:53:53.610Z,8.45
2023-02-11T18:56:23.412Z,7.95
2023-02-11T18:58:52.566Z,6.47
2023-02-11T19:01:24.721Z,6.43
2023-02-11T19:03:51.979Z,6.72
2023-02-11T19:06:30.399Z,6.70
2023-02-11T19:09:02.736Z,6.00
2023-02-11T19:11:50.582Z,6.93
2023-02-11T19:14:23.410Z,7.60
2023-02-11T19:16:53.104Z,7.20
2023-02-11T19:19:25.826Z,11.13
2023-02-11T19:21:52.587Z,7.15
2023-02-11T19:24:23.591Z,7.07
2023-02-11T19:26:52.115Z,7.55
2023-02-11T19:29:19.242Z,6.97
2023-02-11T19:31:46.087Z,6.72
2023-02-11T19:34:15.007Z,7.35
2023-02-11T19:36:42.053Z,6.68
2023-02-11T19:39:09.160Z,7.47
2023-02-11T19:41:38.804Z,10.00
2023-02-11T19:44:06.921Z,7.05
2023-02-11T19:46:40.886Z,6.57
2023-02-11T19:49:10.645Z,11.98
2023-02-11T19:51:39.700Z,10.35
2023-02-11T19:54:07.739Z,18.83
2023-02-11T19:56:34.724Z,15.75
2023-02-11T19:59:04.415Z,20.55
2023-02-11T20:01:31.022Z,15.00
2023-02-11T20:04:00.049Z,14.18
2023-02-11T20:06:29.652Z,9.65
2023-02-11T20:09:01.580Z,12.23
2023-02-11T20:11:30.571Z,12.65
2023-02-11T20:13:58.188Z,6.88
2023-02-11T20:16:46.950Z,8.15
2023-02-11T20:19:21.509Z,8.95
2023-02-11T20:21:51.471Z,8.23
2023-02-11T20:24:19.444Z,10.23
2023-02-11T20:26:48.787Z,7.80
2023-02-11T20:29:20.515Z,8.90
2023-02-11T20:31:51.715Z,9.05
2023-02-11T20:34:18.996Z,7.15
2023-02-11T20:36:52.341Z,6.10
2023-02-11T20:39:22.314Z,6.30
2023-02-11T20:41:49.939Z,6.05
2023-02-11T20:44:16.794Z,6.13
2023-02-11T20:46:47.029Z,6.15
2023-02-11T20:49:16.524Z,7.10
2023-02-11T20:51:43.715Z,6.82
2023-02-11T20:54:15.003Z,5.78
2023-02-11T20:56:42.332Z,6.55
2023-02-11T20:59:15.328Z,6.07
2023-02-11T21:01:44.549Z,5.38
2023-02-11T21:04:14.677Z,6.13
2023-02-11T21:06:45.406Z,6.70
2023-02-11T21:09:19.661Z,12.50
2023-02-11T21:11:47.383Z,29.27
2023-02-11T21:14:16.497Z,43.67
2023-02-11T21:16:43.276Z,19.08
2023-02-11T21:19:10.078Z,8.07
2023-02-11T21:21:38.185Z,6.15
2023-02-11T21:24:08.904Z,6.38
2023-02-11T21:26:36.210Z,5.95
2023-02-11T21:29:04.302Z,12.57
2023-02-11T21:31:32.875Z,7.85
2023-02-11T21:33:59.961Z,6.10
2023-02-11T21:36:28.281Z,6.80
2023-02-11T21:41:22.652Z,7.35
2023-02-11T21:43:50.967Z,5.75
2023-02-11T21:46:18.816Z,6.28
2023-02-11T21:48:48.182Z,5.93
2023-02-11T21:51:20.500Z,5.80
2023-02-11T21:53:47.839Z,5.47
2023-02-11T21:56:17.815Z,7.55
2023-02-11T21:58:45.471Z,7.00
2023-02-11T22:01:16.323Z,7.85
2023-02-11T22:03:43.539Z,7.70
2023-02-11T22:06:12.848Z,9.65
2023-02-11T22:08:42.467Z,7.95
2023-02-11T22:11:11.518Z,6.70
2023-02-11T22:13:38.715Z,6.55
2023-02-11T22:16:08.573Z,6.57
2023-02-11T22:18:37.115Z,7.53
2023-02-11T22:21:09.464Z,6.63
2023-02-11T22:23:37.478Z,6.05
2023-02-11T22:26:09.586Z,6.20
2023-02-11T22:28:39.167Z,7.05
2023-02-11T22:31:06.590Z,9.30
2023-02-11T22:33:37.526Z,8.43
2023-02-11T22:36:07.932Z,10.25
2023-02-11T22:38:37.638Z,8.27
2023-02-11T22:41:12.792Z,6.28
2023-02-11T22:43:39.364Z,6.13
2023-02-11T22:46:07.745Z,8.32
2023-02-11T22:48:36.185Z,8.85
2023-02-11T22:51:14.625Z,6.80
2023-02-11T22:53:46.539Z,6.53
2023-02-11T22:56:15.847Z,6.50
2023-02-11T22:58:43.594Z,6.43
2023-02-11T23:01:13.118Z,6.63
2023-02-11T23:03:40.174Z,6.75
2023-02-11T23:06:07.376Z,7.28
2023-02-11T23:08:40.502Z,6.25
2023-02-11T23:11:09.802Z,6.35
2023-02-11T23:13:38.806Z,6.50
2023-02-11T23:16:07.650Z,7.30
2023-02-11T23:18:36.192Z,7.60
2023-02-11T23:21:16.599Z,7.18
2023-02-11T23:23:44.258Z,7.43
2023-02-11T23:26:17.428Z,7.47
2023-02-11T23:28:47.308Z,7.40
2023-02-11T23:31:27.020Z,7.72
2023-02-11T23:33:56.543Z,7.85
2023-02-11T23:36:23.972Z,6.90
2023-02-11T23:38:54.796Z,7.43
2023-02-11T23:41:22.445Z,7.63
2023-02-11T23:43:54.152Z,7.65
2023-02-11T23:46:24.854Z,8.15
2023-02-11T23:48:52.241Z,7.40
2023-02-11T23:51:20.786Z,8.00
2023-02-11T23:53:50.197Z,7.63
2023-02-11T23:56:20.821Z,8.10
2023-02-11T23:58:49.411Z,8.07
